Accueil
METAR-TAF:

METAR-TAF

Aéroports :

Aéroport de Porto Santo

Porto Santo, Portugal

latitude: 33-04N, longitude: 016-21W, altitude: 97 m

Observation

Le bulletin a été fait il y a 38 minutes, à 13:30 UTC
Vent 16 kt de nord/nord-est
Température 21°C
Humidité 73%
Pression 1020 hPa
Visibilité 10 km ou plus
Nuages épars à une hauteur de 1500 ft
Nuages fragmentés à une hauteur de 3000 ft

METAR: LPPS 231330Z 02016KT 9999 SCT015 BKN030 21/16 Q1020

Heure: 15:08 (14:08 UTC)

Prévision

Le bulletin a été fait il y a 3 heures et 8 minutes, à 11:00 UTC
Prévision valable du 23 à 12 UTC au 24 à 18 UTC
Vent 15 kt de nord/nord-est
Visibilité 10 km ou plus
Nuages épars à une hauteur de 1500 ft
Nuages fragmentés à une hauteur de 3000 ft
Temporairement
du 23 à 12 UTC au 24 à 18 UTC
Nuages épars à une hauteur de 1500 ft

TAF: LPPS 231100Z 2312/2418 03015KT 9999 SCT015 BKN030 TEMPO 2312/2418 SCT015

Observations et prévisions météorologiques de plus de 4000 aéroports (messages METAR et TAF).

Les stations disponibles sont représentées par des disques jaunes et rouges sur la carte.

Passer la souris dessus pour voir le nom de la station.

Cliquer dessus pour voir les observations et prévisions météorologiques.

Pour changer de carte: cliquez sur les boutons verts avec une croix noire pour zoomer, sur le bouton vert avec un tiret pour effectuer un zoom arrière, ou sur les flèches vertes pour les cartes adjacentes.


METAR-TAF: